Time;durP1;ratioP1;P1;durP2;ratioP2;P2;SDS_P1;SDS_P2;PMS_P1;PMS_P2;Temp;Humidity;BMP_temperature;BMP_pressure;BME280_temperature;BME280_humidity;BME280_pressure;Samples;Min_cycle;Max_cycle;Signal;HPM_P1;HPM_P2
2022/09/25 00:00:34;;;;;;;12.00;8.20;;;10.70;99.90;;;;;;5030235;28;20446;-64
2022/09/25 00:02:59;;;;;;;19.70;9.10;;;10.70;99.90;;;;;;5024473;28;20454;-63
2022/09/25 00:05:25;;;;;;;18.10;10.53;;;10.70;99.90;;;;;;5028789;28;20545;-64
2022/09/25 00:07:51;;;;;;;16.57;10.77;;;10.70;99.90;;;;;;5024606;28;20207;-63
2022/09/25 00:10:17;;;;;;;22.53;11.10;;;10.70;99.90;;;;;;5020251;28;20640;-63
2022/09/25 00:12:43;;;;;;;28.57;12.97;;;10.70;99.90;;;;;;5023433;28;20427;-63
2022/09/25 00:15:09;;;;;;;23.07;12.50;;;10.70;99.90;;;;;;5032153;28;20462;-63
2022/09/25 00:17:35;;;;;;;47.43;13.87;;;10.70;99.90;;;;;;5031362;28;20218;-62
2022/09/25 00:20:01;;;;;;;43.80;13.03;;;10.70;99.90;;;;;;5005920;28;20470;-63
2022/09/25 00:22:27;;;;;;;23.03;10.97;;;10.70;99.90;;;;;;5022832;28;20808;-63
2022/09/25 00:24:53;;;;;;;51.73;12.10;;;10.60;99.90;;;;;;5029328;28;20200;-66
2022/09/25 00:27:19;;;;;;;83.77;13.87;;;10.60;99.90;;;;;;5024635;28;20823;-63
2022/09/25 00:29:46;;;;;;;77.43;13.03;;;10.50;99.90;;;;;;5021662;28;20171;-63
2022/09/25 00:32:12;;;;;;;52.17;13.67;;;10.50;99.90;;;;;;5021877;28;20200;-63
2022/09/25 00:34:39;;;;;;;17.73;9.17;;;10.50;99.90;;;;;;5028532;28;20533;-63
2022/09/25 00:37:05;;;;;;;19.33;10.40;;;10.40;99.90;;;;;;5022894;28;20446;-63
2022/09/25 00:39:31;;;;;;;43.93;11.43;;;10.40;99.90;;;;;;5031291;28;20418;-63
2022/09/25 00:41:57;;;;;;;18.77;11.37;;;10.40;99.90;;;;;;5027130;28;20441;-63
2022/09/25 00:44:55;;;;;;;21.33;11.47;;;10.50;99.90;;;;;;5022783;28;20437;-64
2022/09/25 00:47:42;;;;;;;48.17;10.93;;;10.40;99.90;;;;;;5017417;28;20460;-65
2022/09/25 00:50:20;;;;;;;24.27;10.70;;;10.40;99.90;;;;;;5030291;28;20418;-63
2022/09/25 00:52:47;;;;;;;85.67;12.23;;;10.40;99.90;;;;;;5028974;28;20466;-62
2022/09/25 00:55:14;;;;;;;142.60;13.77;;;10.40;99.90;;;;;;5031479;28;20411;-63
2022/09/25 00:57:45;;;;;;;27.53;11.40;;;10.30;99.90;;;;;;5029865;28;20888;-63
2022/09/25 01:00:12;;;;;;;51.77;11.10;;;10.30;99.90;;;;;;5024376;28;20766;-63
2022/09/25 01:02:42;;;;;;;19.03;9.90;;;10.30;99.90;;;;;;5029459;28;20517;-64
2022/09/25 01:05:20;;;;;;;29.20;11.13;;;10.20;99.90;;;;;;5022219;28;20976;-63
2022/09/25 01:07:48;;;;;;;18.63;10.00;;;10.20;99.90;;;;;;5026855;28;20469;-62
2022/09/25 01:10:16;;;;;;;15.90;9.90;;;10.20;99.90;;;;;;5028666;28;20851;-63
2022/09/25 01:12:46;;;;;;;31.13;9.27;;;10.30;99.90;;;;;;5013303;28;20468;-63
2022/09/25 01:15:15;;;;;;;39.80;8.93;;;10.30;99.90;;;;;;5010005;28;20442;-63
2022/09/25 01:18:36;;;;;;;61.03;8.83;;;10.20;99.90;;;;;;5024929;28;20425;-63
2022/09/25 01:21:31;;;;;;;13.00;7.73;;;10.20;99.90;;;;;;5004361;28;20443;-63
2022/09/25 01:24:04;;;;;;;51.67;9.43;;;10.10;99.90;;;;;;5016248;28;20451;-62
2022/09/25 01:26:59;;;;;;;174.80;10.13;;;10.10;99.90;;;;;;5030162;28;20465;-65
2022/09/25 01:29:41;;;;;;;81.87;9.43;;;10.10;99.90;;;;;;5011458;28;20486;-64
2022/09/25 01:32:17;;;;;;;14.93;6.93;;;10.00;99.90;;;;;;5009710;28;20419;-63
2022/09/25 01:34:54;;;;;;;29.90;7.73;;;10.00;99.90;;;;;;5013390;28;21055;-62
2022/09/25 01:37:43;;;;;;;53.00;9.10;;;10.00;99.90;;;;;;5034575;28;20410;-63
2022/09/25 01:40:40;;;;;;;24.23;8.23;;;10.00;99.90;;;;;;5030373;28;20655;-63
2022/09/25 01:43:13;;;;;;;24.90;7.27;;;9.90;99.90;;;;;;5018528;28;20454;-64
2022/09/25 01:45:46;;;;;;;15.67;6.07;;;9.90;99.90;;;;;;5029117;28;20995;-63
2022/09/25 01:48:16;;;;;;;11.13;6.70;;;9.90;99.90;;;;;;5030646;28;20780;-62
2022/09/25 01:50:59;;;;;;;10.83;6.37;;;9.80;99.90;;;;;;5025740;28;20431;-63
2022/09/25 01:53:38;;;;;;;22.20;7.50;;;9.80;99.90;;;;;;5035163;28;20437;-62
2022/09/25 01:56:09;;;;;;;26.70;7.17;;;9.80;99.90;;;;;;5026383;28;20492;-63
2022/09/25 01:58:41;;;;;;;11.20;7.13;;;9.80;99.90;;;;;;5029487;28;20434;-62
2022/09/25 02:01:13;;;;;;;11.43;6.53;;;9.90;99.90;;;;;;5013062;28;20400;-63
2022/09/25 02:03:56;;;;;;;17.20;6.10;;;9.90;99.90;;;;;;5029319;28;20457;-63
2022/09/25 02:06:23;;;;;;;14.93;5.90;;;9.90;99.90;;;;;;5016510;28;20481;-62
2022/09/25 02:09:02;;;;;;;7.73;6.07;;;9.90;99.90;;;;;;5030418;28;20948;-62
2022/09/25 02:11:35;;;;;;;16.33;6.77;;;9.90;99.90;;;;;;5008048;28;20433;-62
2022/09/25 02:14:11;;;;;;;12.40;6.93;;;9.90;99.90;;;;;;5021054;28;20446;-63
2022/09/25 02:16:42;;;;;;;14.07;6.90;;;9.90;99.90;;;;;;5037987;28;20421;-63
2022/09/25 02:22:18;;;;;;;14.83;6.20;;;9.90;99.90;;;;;;5023313;28;20986;-63
2022/09/25 02:25:16;;;;;;;23.13;6.30;;;9.90;99.90;;;;;;5022189;28;20987;-63
2022/09/25 02:27:42;;;;;;;51.73;6.50;;;9.90;99.90;;;;;;5025776;28;20438;-63
2022/09/25 02:30:10;;;;;;;28.97;6.57;;;9.80;99.90;;;;;;5016433;28;20422;-63
2022/09/25 02:32:36;;;;;;;20.07;6.00;;;9.80;99.90;;;;;;5027433;28;20470;-63
2022/09/25 02:35:02;;;;;;;40.73;7.63;;;9.70;99.90;;;;;;5027988;28;20453;-63
2022/09/25 02:37:28;;;;;;;9.40;5.37;;;9.70;99.90;;;;;;5003537;28;20234;-63
2022/09/25 02:39:57;;;;;;;16.40;6.00;;;9.60;99.90;;;;;;5026493;28;20443;-63
2022/09/25 02:42:48;;;;;;;7.63;5.20;;;9.60;99.90;;;;;;5002526;28;20458;-63
2022/09/25 02:45:38;;;;;;;10.80;6.37;;;9.60;99.90;;;;;;5033081;28;20450;-63
2022/09/25 02:48:26;;;;;;;11.57;6.67;;;9.60;99.90;;;;;;5001618;28;20944;-63
2022/09/25 02:51:03;;;;;;;62.63;7.57;;;9.50;99.90;;;;;;5024617;28;20929;-64
2022/09/25 02:53:42;;;;;;;36.23;6.97;;;9.60;99.90;;;;;;5013523;28;20423;-63
2022/09/25 02:56:13;;;;;;;7.37;5.00;;;9.50;99.90;;;;;;5000348;28;20772;-63
2022/09/25 02:58:55;;;;;;;14.70;5.30;;;9.50;99.90;;;;;;5014449;28;20446;-63
2022/09/25 03:01:23;;;;;;;25.90;5.87;;;9.50;99.90;;;;;;5029485;28;20434;-63
2022/09/25 03:03:52;;;;;;;38.40;6.00;;;9.50;99.90;;;;;;5032933;28;20720;-63
2022/09/25 03:06:20;;;;;;;17.40;4.90;;;9.50;99.90;;;;;;5025536;28;20968;-63
2022/09/25 03:08:50;;;;;;;8.23;5.17;;;9.40;99.90;;;;;;5033224;28;20422;-63
2022/09/25 03:11:18;;;;;;;82.13;7.53;;;9.40;99.90;;;;;;5018695;28;20418;-63
2022/09/25 03:13:45;;;;;;;5.53;4.50;;;9.40;99.90;;;;;;5011730;28;20864;-62
2022/09/25 03:16:19;;;;;;;18.13;5.13;;;9.30;99.90;;;;;;5016519;28;20441;-62
2022/09/25 03:18:46;;;;;;;7.27;5.17;;;9.30;99.90;;;;;;5025550;28;20430;-62
2022/09/25 03:21:11;;;;;;;23.83;6.10;;;9.30;99.90;;;;;;5030750;28;20804;-63
2022/09/25 03:23:37;;;;;;;12.97;5.33;;;9.30;99.90;;;;;;5028709;28;21074;-63
2022/09/25 03:26:03;;;;;;;10.67;5.33;;;9.30;99.90;;;;;;5013093;28;20224;-62
2022/09/25 03:28:29;;;;;;;9.23;5.40;;;9.30;99.90;;;;;;5025943;28;20187;-63
2022/09/25 03:31:03;;;;;;;14.17;6.20;;;9.30;99.90;;;;;;5032063;28;20437;-62
2022/09/25 03:33:35;;;;;;;8.50;4.63;;;9.30;99.90;;;;;;5031725;28;20211;-62
2022/09/25 03:36:05;;;;;;;9.00;5.03;;;9.30;99.90;;;;;;5030924;28;20442;-63
2022/09/25 03:38:31;;;;;;;7.93;5.00;;;9.30;99.90;;;;;;5031973;28;20921;-62
2022/09/25 03:40:57;;;;;;;7.60;5.03;;;9.30;99.90;;;;;;5033072;28;20433;-63
2022/09/25 03:43:22;;;;;;;9.33;5.53;;;9.30;99.90;;;;;;5026590;28;21040;-62
2022/09/25 03:45:48;;;;;;;23.17;5.57;;;9.20;99.90;;;;;;5021860;28;20199;-63
2022/09/25 03:48:14;;;;;;;18.13;6.27;;;9.20;99.90;;;;;;5032137;28;20578;-64
2022/09/25 03:50:40;;;;;;;8.67;5.37;;;9.20;99.90;;;;;;5026195;28;20689;-63
2022/09/25 03:53:06;;;;;;;7.93;5.03;;;9.20;99.90;;;;;;5020841;28;20712;-63
2022/09/25 03:55:32;;;;;;;11.97;5.90;;;9.10;99.90;;;;;;5015600;28;20423;-62
2022/09/25 03:57:58;;;;;;;40.57;7.77;;;9.10;99.90;;;;;;5029505;28;20176;-63
2022/09/25 04:00:24;;;;;;;20.77;5.60;;;9.10;99.90;;;;;;5028803;28;20859;-63
2022/09/25 04:02:49;;;;;;;11.13;5.47;;;9.10;99.90;;;;;;5027707;28;20298;-62
2022/09/25 04:05:18;;;;;;;12.03;4.50;;;9.00;99.90;;;;;;5028168;28;20669;-63
2022/09/25 04:07:44;;;;;;;7.43;4.63;;;9.00;99.90;;;;;;5015101;28;20580;-62
2022/09/25 04:10:10;;;;;;;20.07;4.93;;;9.00;99.90;;;;;;5019911;28;20437;-63
2022/09/25 04:12:36;;;;;;;16.30;5.27;;;9.00;99.90;;;;;;5029865;28;20192;-62
2022/09/25 04:15:01;;;;;;;5.90;4.43;;;9.00;99.90;;;;;;5023310;28;20175;-63
2022/09/25 04:17:28;;;;;;;12.17;5.40;;;9.00;99.90;;;;;;5007728;28;20271;-62
2022/09/25 04:19:53;;;;;;;7.17;5.27;;;9.00;99.90;;;;;;5017144;28;20176;-63
2022/09/25 04:22:19;;;;;;;36.20;5.37;;;9.00;99.90;;;;;;5025295;28;20457;-62
2022/09/25 04:24:48;;;;;;;9.07;4.50;;;8.90;99.90;;;;;;5032013;28;20196;-63
2022/09/25 04:27:19;;;;;;;5.13;4.00;;;8.90;99.90;;;;;;5019618;28;20264;-62
2022/09/25 04:29:45;;;;;;;5.27;4.40;;;8.90;99.90;;;;;;5016910;28;20423;-62
2022/09/25 04:34:57;;;;;;;5.03;4.53;;;8.90;99.90;;;;;;5044284;28;20564;-62
2022/09/25 04:37:25;;;;;;;37.53;6.13;;;8.80;99.90;;;;;;5028983;28;20434;-63
2022/09/25 04:39:52;;;;;;;18.33;5.53;;;8.80;99.90;;;;;;5026936;28;20423;-64
2022/09/25 04:42:23;;;;;;;10.00;5.60;;;8.80;99.90;;;;;;4994026;28;20427;-63
2022/09/25 04:44:52;;;;;;;11.80;5.60;;;8.80;99.90;;;;;;5020939;28;20458;-63
2022/09/25 04:47:22;;;;;;;16.63;5.70;;;8.80;99.90;;;;;;5022120;28;20438;-62
2022/09/25 04:49:48;;;;;;;10.57;5.30;;;8.80;99.90;;;;;;5029289;28;20431;-63
2022/09/25 04:52:15;;;;;;;5.10;4.50;;;8.80;99.90;;;;;;5016826;28;20504;-62
2022/09/25 04:54:41;;;;;;;4.90;4.17;;;8.80;99.90;;;;;;5038142;28;20830;-62
2022/09/25 04:57:14;;;;;;;6.10;4.50;;;8.90;99.90;;;;;;5031456;28;20441;-64
2022/09/25 04:59:40;;;;;;;22.37;5.27;;;8.90;99.90;;;;;;5029157;28;20422;-62
2022/09/25 05:02:06;;;;;;;9.30;5.57;;;8.90;99.90;;;;;;5020798;28;20489;-63
2022/09/25 05:04:31;;;;;;;9.70;5.17;;;8.90;99.90;;;;;;5021204;28;20222;-63
2022/09/25 05:06:57;;;;;;;8.30;5.53;;;8.90;99.90;;;;;;5024871;28;20199;-64
2022/09/25 05:09:23;;;;;;;8.43;6.30;;;8.90;99.90;;;;;;5030839;28;20223;-63
2022/09/25 05:11:48;;;;;;;9.07;5.90;;;8.90;99.90;;;;;;5030671;28;20664;-63
2022/09/25 05:14:14;;;;;;;14.53;5.80;;;8.90;99.90;;;;;;5030933;28;20267;-63
2022/09/25 05:16:39;;;;;;;7.53;5.60;;;8.90;99.90;;;;;;5018111;28;20167;-63
2022/09/25 05:19:05;;;;;;;46.77;7.03;;;8.90;99.90;;;;;;5024952;28;20192;-62
2022/09/25 05:21:31;;;;;;;16.40;6.10;;;8.90;99.90;;;;;;5028926;28;20180;-62
2022/09/25 05:23:57;;;;;;;7.97;5.40;;;8.80;99.90;;;;;;5030784;28;20563;-63
2022/09/25 05:26:23;;;;;;;11.20;5.90;;;8.80;99.90;;;;;;5014066;28;20466;-63
2022/09/25 05:28:49;;;;;;;12.93;6.33;;;8.90;99.90;;;;;;5029689;28;20398;-63
2022/09/25 05:31:15;;;;;;;6.40;4.93;;;8.90;99.90;;;;;;5030270;28;20986;-63
2022/09/25 05:33:42;;;;;;;12.53;6.47;;;8.90;99.90;;;;;;5023071;28;20992;-63
2022/09/25 05:36:08;;;;;;;11.00;7.23;;;8.90;99.90;;;;;;5015147;28;20436;-62
2022/09/25 05:38:36;;;;;;;30.00;6.93;;;8.90;99.90;;;;;;5029245;28;20842;-63
2022/09/25 05:41:07;;;;;;;9.90;5.40;;;8.90;99.90;;;;;;5030638;28;20437;-62
2022/09/25 05:43:38;;;;;;;6.93;5.40;;;8.80;99.90;;;;;;5020621;28;20895;-64
2022/09/25 05:46:03;;;;;;;12.27;6.07;;;8.80;99.90;;;;;;5016042;28;20545;-63
2022/09/25 05:48:29;;;;;;;9.70;6.20;;;8.80;99.90;;;;;;5030434;28;20486;-63
2022/09/25 05:50:56;;;;;;;8.37;5.97;;;8.80;99.90;;;;;;5023146;28;20242;-62
2022/09/25 05:53:22;;;;;;;13.47;6.97;;;8.80;99.90;;;;;;5024884;28;20198;-63
2022/09/25 05:55:49;;;;;;;8.33;5.90;;;8.80;99.90;;;;;;5030398;28;20462;-63
2022/09/25 05:58:15;;;;;;;7.87;5.50;;;8.90;99.90;;;;;;5028975;28;20411;-63
2022/09/25 06:00:41;;;;;;;6.47;5.30;;;8.90;99.90;;;;;;5023565;28;20434;-63
2022/09/25 06:03:07;;;;;;;9.00;5.37;;;8.90;99.90;;;;;;5010133;28;20571;-63
2022/09/25 06:05:32;;;;;;;8.20;5.17;;;8.90;99.90;;;;;;5012521;28;20498;-62
2022/09/25 06:07:58;;;;;;;6.37;4.67;;;9.00;99.90;;;;;;5028988;28;20430;-62
2022/09/25 06:10:26;;;;;;;6.47;4.97;;;9.00;99.90;;;;;;5030178;28;20593;-64
2022/09/25 06:12:57;;;;;;;6.30;5.17;;;9.00;99.90;;;;;;5017740;28;20296;-62
2022/09/25 06:15:24;;;;;;;10.73;5.77;;;9.00;99.90;;;;;;5022002;28;20470;-63
2022/09/25 06:17:50;;;;;;;8.30;5.27;;;9.00;99.90;;;;;;5028303;28;20469;-62
2022/09/25 06:20:16;;;;;;;11.53;4.57;;;9.00;99.90;;;;;;5022347;28;20462;-63
2022/09/25 06:22:43;;;;;;;6.47;5.17;;;9.00;99.90;;;;;;5029442;28;20446;-62
2022/09/25 06:25:09;;;;;;;5.37;4.33;;;9.00;99.90;;;;;;5016279;28;21257;-63
2022/09/25 06:27:36;;;;;;;5.37;4.40;;;9.00;99.90;;;;;;5020375;28;20441;-63
2022/09/25 06:30:02;;;;;;;6.90;4.70;;;9.00;99.90;;;;;;5024656;28;20433;-64
2022/09/25 06:32:27;;;;;;;6.00;4.90;;;9.00;99.90;;;;;;5020671;28;20470;-63
2022/09/25 06:34:53;;;;;;;5.03;4.53;;;9.00;99.90;;;;;;5027811;28;20180;-64
2022/09/25 06:37:19;;;;;;;6.77;4.60;;;9.00;99.90;;;;;;5027897;28;20215;-64
2022/09/25 06:39:44;;;;;;;6.33;5.10;;;9.00;99.90;;;;;;5029803;28;20176;-62
2022/09/25 06:42:10;;;;;;;7.00;5.20;;;9.00;99.90;;;;;;5029889;28;20638;-63
2022/09/25 06:44:36;;;;;;;5.03;4.53;;;9.00;99.90;;;;;;5026583;28;20195;-63
2022/09/25 06:47:01;;;;;;;7.80;5.40;;;8.90;99.90;;;;;;5029948;28;20176;-63
2022/09/25 06:49:27;;;;;;;6.10;4.93;;;9.00;99.90;;;;;;5028152;28;20183;-65
2022/09/25 06:51:53;;;;;;;8.20;5.47;;;9.00;99.90;;;;;;5023951;28;20203;-62
2022/09/25 06:54:19;;;;;;;8.50;5.20;;;9.00;99.90;;;;;;5028322;28;20211;-62
2022/09/25 06:56:48;;;;;;;6.70;5.40;;;9.10;99.90;;;;;;5030035;28;20457;-62
2022/09/25 06:59:14;;;;;;;6.30;4.93;;;9.10;99.90;;;;;;5030130;28;20187;-63
2022/09/25 07:01:40;;;;;;;7.13;5.10;;;9.20;99.90;;;;;;5020454;28;20446;-63
2022/09/25 07:04:05;;;;;;;5.30;4.80;;;9.20;99.90;;;;;;5020136;28;20200;-62
2022/09/25 07:06:33;;;;;;;6.90;5.07;;;9.30;99.90;;;;;;5019809;28;20223;-62
2022/09/25 07:08:59;;;;;;;4.87;4.37;;;9.30;99.90;;;;;;5029896;28;20180;-63
2022/09/25 07:11:32;;;;;;;6.63;5.27;;;9.30;99.90;;;;;;5025530;28;20485;-63
2022/09/25 07:13:58;;;;;;;6.70;5.60;;;9.40;99.90;;;;;;5029036;28;20274;-62
2022/09/25 07:16:27;;;;;;;7.07;5.40;;;9.40;99.90;;;;;;5019611;28;20473;-63
2022/09/25 07:18:55;;;;;;;6.77;4.97;;;9.50;99.90;;;;;;5017868;28;20206;-64
2022/09/25 07:21:23;;;;;;;5.73;5.10;;;9.50;99.90;;;;;;5019131;28;20434;-63
2022/09/25 07:23:50;;;;;;;6.90;5.33;;;9.60;99.90;;;;;;5008695;28;20467;-64
2022/09/25 07:26:28;;;;;;;5.60;4.80;;;9.70;99.90;;;;;;5003098;28;20484;-63
2022/09/25 07:28:57;;;;;;;7.10;5.00;;;9.80;99.90;;;;;;5022434;28;20430;-63
2022/09/25 07:31:25;;;;;;;5.87;4.43;;;10.00;99.90;;;;;;5031321;28;20970;-63
2022/09/25 07:33:51;;;;;;;7.20;5.47;;;10.00;99.90;;;;;;5030734;28;20466;-64
2022/09/25 07:36:18;;;;;;;6.13;4.37;;;10.10;99.90;;;;;;5021504;28;21203;-63
2022/09/25 07:38:49;;;;;;;6.87;5.37;;;10.20;99.90;;;;;;5025625;28;20453;-63
2022/09/25 07:41:14;;;;;;;4.60;4.20;;;10.30;99.90;;;;;;5033157;28;20429;-63
2022/09/25 07:43:43;;;;;;;6.33;4.03;;;10.30;99.90;;;;;;5025541;28;20889;-62
2022/09/25 07:46:09;;;;;;;3.83;3.50;;;10.40;99.90;;;;;;5025501;28;20204;-63
2022/09/25 07:48:35;;;;;;;4.67;3.90;;;10.50;99.90;;;;;;5013572;28;20874;-63
2022/09/25 07:51:06;;;;;;;7.33;4.50;;;10.50;99.90;;;;;;5028056;28;20419;-63
2022/09/25 07:53:32;;;;;;;5.53;4.27;;;10.60;99.90;;;;;;5021744;28;21062;-62
2022/09/25 07:55:59;;;;;;;5.80;4.80;;;10.70;99.90;;;;;;5028017;28;20434;-63
2022/09/25 07:58:25;;;;;;;3.93;3.53;;;10.70;99.90;;;;;;5028337;28;20598;-63
2022/09/25 08:00:58;;;;;;;5.27;4.17;;;10.80;99.90;;;;;;5030670;28;20462;-63
2022/09/25 08:03:24;;;;;;;4.63;4.23;;;10.90;99.90;;;;;;5021075;28;20850;-63
2022/09/25 08:06:04;;;;;;;7.40;4.67;;;11.00;99.90;;;;;;5022695;28;20494;-62
2022/09/25 08:08:31;;;;;;;4.47;4.07;;;11.00;99.90;;;;;;5021223;28;20272;-63
2022/09/25 08:11:02;;;;;;;4.90;4.40;;;11.10;99.90;;;;;;5028052;28;20419;-63
2022/09/25 08:13:28;;;;;;;7.40;4.33;;;11.10;99.90;;;;;;5012570;28;20442;-63
2022/09/25 08:15:55;;;;;;;5.33;3.93;;;11.10;99.90;;;;;;5029955;28;20419;-62
2022/09/25 08:18:21;;;;;;;6.17;4.03;;;11.20;99.90;;;;;;5020909;28;20434;-63
2022/09/25 08:20:46;;;;;;;7.10;5.17;;;11.20;99.90;;;;;;5023166;28;20560;-63
2022/09/25 08:23:12;;;;;;;6.67;5.17;;;11.30;99.90;;;;;;5029280;28;21109;-63
2022/09/25 08:25:38;;;;;;;5.00;4.50;;;11.30;99.90;;;;;;5030674;28;20196;-63
2022/09/25 08:28:03;;;;;;;5.53;5.03;;;11.40;99.90;;;;;;5024026;28;20179;-64
2022/09/25 08:30:29;;;;;;;7.80;4.53;;;11.40;99.90;;;;;;5031470;28;20581;-63
2022/09/25 08:32:55;;;;;;;5.43;4.53;;;11.40;99.90;;;;;;5014175;28;20204;-63
2022/09/25 08:35:20;;;;;;;6.63;4.87;;;11.40;99.90;;;;;;5025180;28;20187;-64
2022/09/25 08:37:47;;;;;;;5.03;4.10;;;11.50;99.90;;;;;;5028488;28;20647;-63
2022/09/25 08:40:25;;;;;;;5.50;4.80;;;11.50;99.90;;;;;;5025571;28;20262;-63
2022/09/25 08:42:53;;;;;;;5.77;4.73;;;11.50;99.90;;;;;;5012123;28;20430;-63
2022/09/25 08:51:19;;;;;;;7.20;5.77;;;11.60;99.90;;;;;;5024730;28;20511;-64
2022/09/25 08:53:45;;;;;;;9.73;6.60;;;11.70;99.90;;;;;;5026226;28;20508;-63
2022/09/25 08:56:18;;;;;;;7.23;5.90;;;11.80;99.90;;;;;;5020437;28;20434;-64
2022/09/25 08:58:46;;;;;;;8.23;6.30;;;12.00;99.90;;;;;;5024902;28;20180;-63
2022/09/25 09:01:25;;;;;;;8.37;6.67;;;12.10;99.90;;;;;;5017730;28;20409;-63
2022/09/25 09:04:04;;;;;;;7.63;6.20;;;12.20;99.90;;;;;;5022517;28;20454;-63
2022/09/25 09:06:31;;;;;;;8.07;6.37;;;12.30;99.90;;;;;;5028568;28;20841;-63
2022/09/25 09:09:07;;;;;;;7.33;6.10;;;12.40;99.90;;;;;;5027129;28;20878;-63
2022/09/25 09:11:38;;;;;;;9.27;7.37;;;12.50;99.90;;;;;;5023330;28;20430;-63
2022/09/25 09:14:06;;;;;;;7.93;6.53;;;12.60;99.90;;;;;;5026459;28;20453;-63
2022/09/25 09:16:59;;;;;;;6.70;5.90;;;12.60;99.90;;;;;;5016478;28;20428;-62
2022/09/25 09:19:26;;;;;;;10.23;5.67;;;12.80;99.90;;;;;;5015215;28;20447;-63
2022/09/25 09:22:02;;;;;;;9.80;7.80;;;12.90;99.90;;;;;;5029178;28;20402;-63
2022/09/25 09:24:53;;;;;;;7.13;5.20;;;13.00;99.90;;;;;;5021194;28;20458;-64
2022/09/25 09:27:43;;;;;;;8.13;5.20;;;13.00;99.90;;;;;;5025043;28;20889;-63
2022/09/25 09:30:38;;;;;;;7.60;5.50;;;13.10;99.90;;;;;;5031036;28;20486;-63
2022/09/25 09:33:14;;;;;;;7.17;5.00;;;13.10;99.90;;;;;;5004419;28;20473;-64
2022/09/25 09:35:52;;;;;;;11.23;5.93;;;13.20;99.90;;;;;;5021296;28;20501;-63
2022/09/25 09:38:20;;;;;;;7.80;4.57;;;13.20;99.90;;;;;;5052657;23;20842;-63
2022/09/25 09:41:20;;;;;;;6.27;4.80;;;13.30;99.90;;;;;;5028668;28;20692;-60
2022/09/25 09:43:54;;;;;;;10.20;5.53;;;13.30;99.90;;;;;;5028350;28;20480;-61
2022/09/25 09:46:57;;;;;;;7.13;5.37;;;13.40;99.90;;;;;;5018994;28;20465;-61
2022/09/25 09:49:51;;;;;;;4.77;3.60;;;13.50;99.90;;;;;;5018727;28;20761;-62
2022/09/25 09:52:26;;;;;;;7.20;4.50;;;13.50;99.90;;;;;;5010390;28;20443;-61
2022/09/25 09:54:58;;;;;;;5.27;3.80;;;13.50;99.90;;;;;;5003508;28;20416;-62
2022/09/25 09:57:32;;;;;;;7.03;5.33;;;13.60;99.90;;;;;;5013542;28;20953;-60
2022/09/25 10:00:06;;;;;;;5.93;4.50;;;13.70;99.90;;;;;;5016954;28;20438;-65
2022/09/25 10:03:11;;;;;;;7.43;4.47;;;13.90;99.90;;;;;;5007532;28;20470;-63
2022/09/25 10:05:47;;;;;;;6.03;3.93;;;14.00;99.90;;;;;;4997769;28;20470;-61
2022/09/25 10:08:13;;;;;;;4.77;4.27;;;14.10;99.90;;;;;;5013759;28;20406;-61
2022/09/25 10:10:54;;;;;;;6.17;4.87;;;14.10;99.90;;;;;;5004875;28;20485;-61
2022/09/25 10:13:33;;;;;;;6.20;4.70;;;14.10;99.90;;;;;;5002671;28;20942;-64
2022/09/25 10:16:03;;;;;;;7.67;5.00;;;14.00;99.90;;;;;;5009434;28;20428;-62
2022/09/25 10:18:41;;;;;;;5.80;4.77;;;14.00;99.90;;;;;;5006403;28;20509;-63
2022/09/25 10:21:31;;;;;;;5.20;4.70;;;14.10;99.90;;;;;;5000393;28;20438;-61
2022/09/25 10:23:58;;;;;;;5.30;4.60;;;14.20;99.90;;;;;;5006539;28;20435;-62
2022/09/25 10:26:26;;;;;;;6.47;4.40;;;14.40;99.90;;;;;;5010399;28;20451;-62
2022/09/25 10:28:55;;;;;;;5.87;4.13;;;14.60;99.90;;;;;;5004378;28;20450;-62
2022/09/25 10:31:21;;;;;;;6.63;4.13;;;14.80;99.90;;;;;;5011239;28;20473;-62
2022/09/25 10:34:00;;;;;;;4.33;3.93;;;14.90;99.90;;;;;;5007144;28;20937;-63
2022/09/25 10:36:39;;;;;;;5.23;4.50;;;15.00;99.90;;;;;;5009395;28;20200;-61
2022/09/25 10:39:22;;;;;;;5.47;4.43;;;14.90;99.90;;;;;;5007578;28;20470;-61
2022/09/25 10:41:48;;;;;;;7.30;4.17;;;14.90;99.90;;;;;;5006414;28;20798;-61
2022/09/25 10:44:22;;;;;;;7.57;3.97;;;14.80;99.90;;;;;;5022584;28;20414;-61
2022/09/25 10:52:49;;;;;;;5.73;4.40;;;14.50;99.90;;;;;;5013775;28;20466;-61
2022/09/25 10:55:40;;;;;;;4.40;3.53;;;14.40;99.90;;;;;;5009461;28;20457;-62
2022/09/25 10:58:31;;;;;;;7.83;4.50;;;14.60;99.90;;;;;;4989919;28;20447;-65
2022/09/25 11:01:00;;;;;;;12.47;4.60;;;15.00;99.90;;;;;;5011407;28;20473;-65
2022/09/25 11:03:33;;;;;;;4.57;3.77;;;15.50;99.90;;;;;;4992244;28;20428;-62
2022/09/25 11:06:04;;;;;;;4.33;3.53;;;15.90;99.90;;;;;;5009060;28;20459;-61
2022/09/25 11:08:36;;;;;;;6.07;3.87;;;16.10;99.90;;;;;;5011945;28;20527;-61
2022/09/25 11:11:03;;;;;;;6.87;4.40;;;16.10;98.90;;;;;;5016920;28;21325;-62
2022/09/25 11:13:49;;;;;;;5.97;3.43;;;16.00;98.40;;;;;;5013778;28;20451;-62
2022/09/25 11:16:16;;;;;;;5.23;3.40;;;15.90;98.70;;;;;;5002870;28;20536;-65
2022/09/25 11:18:50;;;;;;;3.50;3.20;;;15.80;99.50;;;;;;5010117;28;20423;-62
2022/09/25 11:21:24;;;;;;;5.20;3.40;;;15.90;99.90;;;;;;5013840;28;20541;-62
2022/09/25 11:24:02;;;;;;;3.67;2.90;;;16.10;99.90;;;;;;5002158;28;20961;-62
2022/09/25 11:26:36;;;;;;;11.20;3.50;;;16.20;99.90;;;;;;5011113;28;20781;-59
2022/09/25 11:29:33;;;;;;;3.60;3.30;;;16.30;99.30;;;;;;5016702;28;20508;-62
2022/09/25 11:32:28;;;;;;;3.80;3.20;;;16.30;97.30;;;;;;4992685;28;20833;-65
2022/09/25 11:35:18;;;;;;;3.50;3.07;;;16.30;97.20;;;;;;5011176;28;20427;-60
2022/09/25 11:38:03;;;;;;;7.17;3.93;;;16.30;89.60;;;;;;5005966;28;20434;-62
2022/09/25 11:43:35;;;;;;;3.93;3.30;;;15.90;87.00;;;;;;5009158;28;20423;-61
2022/09/25 11:46:38;;;;;;;4.63;3.57;;;15.70;91.20;;;;;;5012065;28;20459;-62
2022/09/25 11:49:19;;;;;;;3.57;2.93;;;15.50;94.00;;;;;;5011233;28;20443;-63
2022/09/25 11:52:07;;;;;;;5.17;3.43;;;15.40;98.20;;;;;;5003821;28;20422;-62
2022/09/25 11:54:34;;;;;;;10.10;4.10;;;15.30;99.90;;;;;;4993074;28;20567;-61
2022/09/25 11:57:09;;;;;;;4.60;3.80;;;15.30;99.90;;;;;;4996069;28;20784;-64
2022/09/25 11:59:57;;;;;;;4.77;3.70;;;15.10;97.70;;;;;;5005186;28;21068;-64
2022/09/25 12:02:31;;;;;;;6.73;3.40;;;15.00;99.40;;;;;;5008278;28;20441;-63
2022/09/25 12:05:15;;;;;;;5.33;4.03;;;14.90;99.60;;;;;;5002626;28;20473;-62
2022/09/25 12:08:22;;;;;;;4.60;3.70;;;14.70;99.80;;;;;;5010515;28;21183;-62
2022/09/25 12:11:18;;;;;;;4.97;3.80;;;14.60;99.90;;;;;;4966995;28;21292;-63
2022/09/25 12:14:11;;;;;;;5.20;3.97;;;14.60;99.90;;;;;;5003134;28;20443;-63
2022/09/25 12:16:52;;;;;;;9.63;4.27;;;14.60;99.90;;;;;;5008301;28;20539;-63
2022/09/25 12:19:27;;;;;;;6.73;3.67;;;14.90;99.90;;;;;;5013574;28;20447;-63
2022/09/25 12:22:16;;;;;;;8.40;4.80;;;15.30;99.90;;;;;;5011750;28;20927;-65
2022/09/25 12:25:17;;;;;;;6.83;4.43;;;15.50;99.90;;;;;;5010385;28;21006;-64
2022/09/25 12:27:42;;;;;;;7.73;5.70;;;15.70;98.90;;;;;;5015535;28;20438;-64
2022/09/25 12:30:38;;;;;;;6.27;5.00;;;15.60;96.40;;;;;;5011410;28;20424;-63
2022/09/25 12:33:13;;;;;;;7.57;6.03;;;15.50;94.70;;;;;;5006637;28;20187;-64
2022/09/25 12:35:46;;;;;;;7.80;5.37;;;15.30;93.50;;;;;;5012562;28;20438;-63
2022/09/25 12:38:34;;;;;;;8.00;5.20;;;15.10;94.00;;;;;;5001929;28;20408;-62
2022/09/25 12:41:39;;;;;;;10.47;5.57;;;14.90;96.40;;;;;;5007622;28;20431;-63
2022/09/25 12:44:19;;;;;;;8.17;6.27;;;14.70;96.00;;;;;;4998476;28;20415;-64
2022/09/25 12:47:14;;;;;;;8.13;5.33;;;14.50;97.60;;;;;;5003889;28;20446;-63
2022/09/25 12:50:05;;;;;;;8.10;5.53;;;14.30;99.20;;;;;;5010319;28;20447;-64
2022/09/25 12:52:51;;;;;;;9.70;6.57;;;14.20;99.70;;;;;;5017614;28;20538;-62
2022/09/25 12:55:20;;;;;;;11.03;5.97;;;14.10;99.90;;;;;;5009263;28;20419;-62
2022/09/25 12:57:59;;;;;;;7.80;5.77;;;14.00;99.90;;;;;;5003931;28;20443;-63
2022/09/25 13:00:29;;;;;;;9.47;7.23;;;14.00;99.90;;;;;;5009401;28;20419;-62
2022/09/25 13:03:05;;;;;;;8.30;6.40;;;13.90;99.90;;;;;;5015097;28;20436;-63
2022/09/25 13:06:00;;;;;;;10.87;6.63;;;13.80;99.90;;;;;;5019766;28;20456;-64
2022/09/25 13:08:38;;;;;;;8.97;6.30;;;13.80;99.90;;;;;;4937458;28;20782;-63
2022/09/25 13:11:18;;;;;;;9.87;6.63;;;13.70;99.90;;;;;;4991811;28;20525;-63
2022/09/25 13:13:52;;;;;;;11.90;6.40;;;13.60;99.90;;;;;;5001974;28;20991;-63
2022/09/25 13:16:19;;;;;;;14.10;7.70;;;13.50;99.90;;;;;;5008253;28;20423;-63
2022/09/25 13:19:07;;;;;;;10.70;7.13;;;13.50;99.90;;;;;;5005601;28;20462;-63
2022/09/25 13:21:36;;;;;;;10.57;6.80;;;13.50;99.90;;;;;;5008897;28;20412;-63
2022/09/25 13:24:07;;;;;;;12.93;7.47;;;13.40;99.90;;;;;;5010594;28;20402;-66
2022/09/25 13:26:43;;;;;;;12.33;6.80;;;13.30;99.90;;;;;;5008556;28;20802;-64
2022/09/25 13:29:34;;;;;;;6.87;6.07;;;13.30;99.90;;;;;;5000554;28;20815;-63
2022/09/25 13:32:22;;;;;;;10.47;7.40;;;13.30;99.90;;;;;;5008114;28;20493;-64
2022/09/25 13:34:52;;;;;;;14.63;8.37;;;13.30;99.90;;;;;;5013575;28;20434;-60